Villa Maria, Pennsylvania
Current Conditions -  °F | °C
As of 1:51 AM on Thursday 23 Oct 2014 (Local Time) from KYNG Reporting Station
Broken Clouds Broken Clouds  
Wind Chill: 42°   Ceiling: 4000
Heat Index: 44°   Visibility: 10mi
Dew Point: 42°   Wind: 5mph
Humidity: 93%   Direction: 300°WNW
Pressure: 30.17"   Gusts: NA
Location:  41.07°N, 80.51°W
Report Text: KYNG 230551Z 30004KT 10SM BKN040 07/06 A3017 RMK AO2 SLP220 T00670056 10072 20050 56012
Loading
Personal Weather Stations






























Interactive Weather Map
Tropical Storm Tracking
New forecast layout! Learn more

10-Day Weather Forecast

Advertisements
Track Severe Weather on mobile